sensor_id;sensor_type;location;lat;lon;timestamp;P1;durP1;ratioP1;P2;durP2;ratioP2
55655;SDS011;41530;52.382;5.270;2023-01-16T00:01:18;4.60;;;0.60;;
55655;SDS011;41530;52.382;5.270;2023-01-16T00:03:44;1.02;;;0.45;;
55655;SDS011;41530;52.382;5.270;2023-01-16T00:06:11;1.60;;;0.55;;
55655;SDS011;41530;52.382;5.270;2023-01-16T00:08:38;2.30;;;0.73;;
55655;SDS011;41530;52.382;5.270;2023-01-16T00:11:04;0.98;;;0.60;;
55655;SDS011;41530;52.382;5.270;2023-01-16T00:13:31;3.35;;;0.80;;
55655;SDS011;41530;52.382;5.270;2023-01-16T00:15:58;0.98;;;0.60;;
55655;SDS011;41530;52.382;5.270;2023-01-16T00:18:25;1.40;;;0.60;;
55655;SDS011;41530;52.382;5.270;2023-01-16T00:20:51;0.75;;;0.52;;
55655;SDS011;41530;52.382;5.270;2023-01-16T00:23:18;1.13;;;0.70;;
55655;SDS011;41530;52.382;5.270;2023-01-16T00:25:45;2.17;;;0.63;;
55655;SDS011;41530;52.382;5.270;2023-01-16T00:28:12;2.20;;;0.60;;
55655;SDS011;41530;52.382;5.270;2023-01-16T00:30:39;1.38;;;0.68;;
55655;SDS011;41530;52.382;5.270;2023-01-16T00:33:06;2.88;;;0.80;;
55655;SDS011;41530;52.382;5.270;2023-01-16T00:35:32;1.67;;;0.70;;
55655;SDS011;41530;52.382;5.270;2023-01-16T00:37:59;6.38;;;0.80;;
55655;SDS011;41530;52.382;5.270;2023-01-16T00:40:26;2.13;;;0.70;;
55655;SDS011;41530;52.382;5.270;2023-01-16T00:42:53;1.60;;;0.60;;
55655;SDS011;41530;52.382;5.270;2023-01-16T00:45:19;2.97;;;0.82;;
55655;SDS011;41530;52.382;5.270;2023-01-16T00:47:46;2.38;;;0.77;;
55655;SDS011;41530;52.382;5.270;2023-01-16T00:50:13;1.45;;;0.88;;
55655;SDS011;41530;52.382;5.270;2023-01-16T00:52:41;1.40;;;0.75;;
55655;SDS011;41530;52.382;5.270;2023-01-16T00:55:08;2.10;;;0.82;;
55655;SDS011;41530;52.382;5.270;2023-01-16T00:57:34;2.05;;;0.52;;
55655;SDS011;41530;52.382;5.270;2023-01-16T01:00:02;3.03;;;1.00;;
55655;SDS011;41530;52.382;5.270;2023-01-16T01:02:29;1.27;;;0.80;;
55655;SDS011;41530;52.382;5.270;2023-01-16T01:04:56;1.95;;;0.85;;
55655;SDS011;41530;52.382;5.270;2023-01-16T01:07:23;1.02;;;0.50;;
55655;SDS011;41530;52.382;5.270;2023-01-16T01:09:50;1.75;;;0.77;;
55655;SDS011;41530;52.382;5.270;2023-01-16T01:12:16;0.85;;;0.80;;
55655;SDS011;41530;52.382;5.270;2023-01-16T01:14:43;0.93;;;0.50;;
55655;SDS011;41530;52.382;5.270;2023-01-16T01:17:09;1.15;;;0.60;;
55655;SDS011;41530;52.382;5.270;2023-01-16T01:19:36;0.85;;;0.50;;
55655;SDS011;41530;52.382;5.270;2023-01-16T01:22:03;0.70;;;0.65;;
55655;SDS011;41530;52.382;5.270;2023-01-16T01:24:29;1.60;;;0.68;;
55655;SDS011;41530;52.382;5.270;2023-01-16T01:26:56;2.53;;;0.55;;
55655;SDS011;41530;52.382;5.270;2023-01-16T01:29:22;1.55;;;0.60;;
55655;SDS011;41530;52.382;5.270;2023-01-16T01:31:49;0.70;;;0.60;;
55655;SDS011;41530;52.382;5.270;2023-01-16T01:34:15;1.13;;;0.75;;
55655;SDS011;41530;52.382;5.270;2023-01-16T01:36:42;1.25;;;0.70;;
55655;SDS011;41530;52.382;5.270;2023-01-16T01:39:09;1.60;;;0.80;;
55655;SDS011;41530;52.382;5.270;2023-01-16T01:41:36;0.65;;;0.60;;
55655;SDS011;41530;52.382;5.270;2023-01-16T01:44:39;1.33;;;0.70;;
55655;SDS011;41530;52.382;5.270;2023-01-16T01:46:49;1.05;;;0.57;;
55655;SDS011;41530;52.382;5.270;2023-01-16T01:49:21;1.75;;;0.80;;
55655;SDS011;41530;52.382;5.270;2023-01-16T01:51:48;2.22;;;0.80;;
55655;SDS011;41530;52.382;5.270;2023-01-16T01:54:17;1.42;;;0.85;;
55655;SDS011;41530;52.382;5.270;2023-01-16T01:59:12;1.58;;;0.80;;
55655;SDS011;41530;52.382;5.270;2023-01-16T02:01:41;1.25;;;0.70;;
55655;SDS011;41530;52.382;5.270;2023-01-16T02:04:15;1.60;;;0.85;;
55655;SDS011;41530;52.382;5.270;2023-01-16T02:06:48;1.90;;;0.80;;
55655;SDS011;41530;52.382;5.270;2023-01-16T02:09:15;1.63;;;0.73;;
55655;SDS011;41530;52.382;5.270;2023-01-16T02:11:43;1.95;;;0.88;;
55655;SDS011;41530;52.382;5.270;2023-01-16T02:14:13;1.35;;;0.70;;
55655;SDS011;41530;52.382;5.270;2023-01-16T02:16:41;2.08;;;0.70;;
55655;SDS011;41530;52.382;5.270;2023-01-16T02:19:41;3.00;;;0.90;;
55655;SDS011;41530;52.382;5.270;2023-01-16T02:30:13;2.15;;;0.90;;
55655;SDS011;41530;52.382;5.270;2023-01-16T02:32:59;1.45;;;0.77;;
55655;SDS011;41530;52.382;5.270;2023-01-16T02:35:40;1.42;;;0.68;;
55655;SDS011;41530;52.382;5.270;2023-01-16T02:38:20;3.20;;;0.90;;
55655;SDS011;41530;52.382;5.270;2023-01-16T02:40:59;3.45;;;0.90;;
55655;SDS011;41530;52.382;5.270;2023-01-16T02:46:06;3.55;;;0.88;;
55655;SDS011;41530;52.382;5.270;2023-01-16T02:48:39;1.33;;;0.80;;
55655;SDS011;41530;52.382;5.270;2023-01-16T02:51:11;2.60;;;0.80;;
55655;SDS011;41530;52.382;5.270;2023-01-16T02:59:31;3.20;;;0.88;;
55655;SDS011;41530;52.382;5.270;2023-01-16T03:02:04;2.35;;;0.90;;
55655;SDS011;41530;52.382;5.270;2023-01-16T03:04:48;1.10;;;0.70;;
55655;SDS011;41530;52.382;5.270;2023-01-16T03:22:44;2.35;;;0.80;;
55655;SDS011;41530;52.382;5.270;2023-01-16T03:25:26;2.63;;;0.98;;
55655;SDS011;41530;52.382;5.270;2023-01-16T03:33:22;5.10;;;1.23;;
55655;SDS011;41530;52.382;5.270;2023-01-16T03:35:52;3.63;;;0.95;;
55655;SDS011;41530;52.382;5.270;2023-01-16T03:38:25;3.95;;;0.73;;
55655;SDS011;41530;52.382;5.270;2023-01-16T03:40:55;1.67;;;0.88;;
55655;SDS011;41530;52.382;5.270;2023-01-16T03:43:33;1.10;;;0.75;;
55655;SDS011;41530;52.382;5.270;2023-01-16T03:51:29;4.40;;;0.88;;
55655;SDS011;41530;52.382;5.270;2023-01-16T03:54:01;5.00;;;0.85;;
55655;SDS011;41530;52.382;5.270;2023-01-16T03:56:37;1.88;;;0.90;;
55655;SDS011;41530;52.382;5.270;2023-01-16T03:59:05;2.33;;;0.52;;
55655;SDS011;41530;52.382;5.270;2023-01-16T04:04:27;1.60;;;0.80;;
55655;SDS011;41530;52.382;5.270;2023-01-16T04:07:06;2.10;;;0.63;;
55655;SDS011;41530;52.382;5.270;2023-01-16T04:09:45;1.33;;;0.73;;
55655;SDS011;41530;52.382;5.270;2023-01-16T04:12:17;0.93;;;0.60;;
55655;SDS011;41530;52.382;5.270;2023-01-16T04:14:50;1.60;;;0.70;;
55655;SDS011;41530;52.382;5.270;2023-01-16T04:17:21;2.38;;;0.80;;
55655;SDS011;41530;52.382;5.270;2023-01-16T04:19:50;1.80;;;0.60;;
55655;SDS011;41530;52.382;5.270;2023-01-16T04:22:20;1.35;;;0.75;;
55655;SDS011;41530;52.382;5.270;2023-01-16T04:24:49;1.08;;;0.60;;
55655;SDS011;41530;52.382;5.270;2023-01-16T04:27:29;3.28;;;0.82;;
55655;SDS011;41530;52.382;5.270;2023-01-16T04:30:04;1.63;;;0.70;;
55655;SDS011;41530;52.382;5.270;2023-01-16T04:32:39;2.25;;;0.80;;
55655;SDS011;41530;52.382;5.270;2023-01-16T04:35:11;0.95;;;0.63;;
55655;SDS011;41530;52.382;5.270;2023-01-16T04:37:38;1.65;;;0.70;;
55655;SDS011;41530;52.382;5.270;2023-01-16T04:40:11;1.38;;;0.63;;
55655;SDS011;41530;52.382;5.270;2023-01-16T04:42:40;2.10;;;0.70;;
55655;SDS011;41530;52.382;5.270;2023-01-16T04:45:07;1.50;;;0.50;;
55655;SDS011;41530;52.382;5.270;2023-01-16T04:47:36;0.93;;;0.50;;
55655;SDS011;41530;52.382;5.270;2023-01-16T04:50:06;1.95;;;0.70;;
55655;SDS011;41530;52.382;5.270;2023-01-16T04:52:36;1.17;;;0.70;;
55655;SDS011;41530;52.382;5.270;2023-01-16T04:55:03;1.23;;;0.60;;
55655;SDS011;41530;52.382;5.270;2023-01-16T04:57:30;0.93;;;0.50;;
55655;SDS011;41530;52.382;5.270;2023-01-16T05:00:00;1.40;;;0.60;;
55655;SDS011;41530;52.382;5.270;2023-01-16T05:02:27;0.75;;;0.52;;
55655;SDS011;41530;52.382;5.270;2023-01-16T05:04:57;1.08;;;0.50;;
55655;SDS011;41530;52.382;5.270;2023-01-16T05:07:25;1.45;;;0.50;;
55655;SDS011;41530;52.382;5.270;2023-01-16T05:09:55;1.40;;;0.50;;
55655;SDS011;41530;52.382;5.270;2023-01-16T05:12:28;1.52;;;0.60;;
55655;SDS011;41530;52.382;5.270;2023-01-16T05:14:58;1.35;;;0.60;;
55655;SDS011;41530;52.382;5.270;2023-01-16T05:17:27;0.60;;;0.50;;
55655;SDS011;41530;52.382;5.270;2023-01-16T05:19:55;0.68;;;0.40;;
55655;SDS011;41530;52.382;5.270;2023-01-16T05:22:22;0.75;;;0.47;;
55655;SDS011;41530;52.382;5.270;2023-01-16T05:24:51;1.05;;;0.40;;
55655;SDS011;41530;52.382;5.270;2023-01-16T05:27:18;1.15;;;0.40;;
55655;SDS011;41530;52.382;5.270;2023-01-16T05:29:48;2.25;;;0.57;;
55655;SDS011;41530;52.382;5.270;2023-01-16T05:32:15;1.48;;;0.40;;
55655;SDS011;41530;52.382;5.270;2023-01-16T05:34:45;1.35;;;0.60;;
55655;SDS011;41530;52.382;5.270;2023-01-16T05:37:12;0.63;;;0.30;;
55655;SDS011;41530;52.382;5.270;2023-01-16T05:39:39;0.82;;;0.45;;
55655;SDS011;41530;52.382;5.270;2023-01-16T05:42:09;1.48;;;0.63;;
55655;SDS011;41530;52.382;5.270;2023-01-16T05:44:52;1.30;;;0.40;;
55655;SDS011;41530;52.382;5.270;2023-01-16T05:47:19;0.50;;;0.35;;
55655;SDS011;41530;52.382;5.270;2023-01-16T05:49:52;1.23;;;0.60;;
55655;SDS011;41530;52.382;5.270;2023-01-16T05:52:21;1.48;;;0.50;;
55655;SDS011;41530;52.382;5.270;2023-01-16T05:54:52;1.73;;;0.60;;
55655;SDS011;41530;52.382;5.270;2023-01-16T05:57:22;1.25;;;0.40;;
55655;SDS011;41530;52.382;5.270;2023-01-16T06:00:09;1.13;;;0.80;;
55655;SDS011;41530;52.382;5.270;2023-01-16T06:02:41;0.88;;;0.50;;
55655;SDS011;41530;52.382;5.270;2023-01-16T06:05:10;1.15;;;0.45;;
55655;SDS011;41530;52.382;5.270;2023-01-16T06:07:41;1.00;;;0.43;;
55655;SDS011;41530;52.382;5.270;2023-01-16T06:10:11;1.48;;;0.47;;
55655;SDS011;41530;52.382;5.270;2023-01-16T06:12:40;0.68;;;0.38;;
55655;SDS011;41530;52.382;5.270;2023-01-16T06:15:07;0.65;;;0.32;;
55655;SDS011;41530;52.382;5.270;2023-01-16T06:17:40;1.33;;;0.45;;
55655;SDS011;41530;52.382;5.270;2023-01-16T06:20:11;1.40;;;0.50;;
55655;SDS011;41530;52.382;5.270;2023-01-16T06:22:41;3.25;;;0.52;;
55655;SDS011;41530;52.382;5.270;2023-01-16T06:25:13;0.65;;;0.40;;
55655;SDS011;41530;52.382;5.270;2023-01-16T06:27:51;1.85;;;0.47;;
55655;SDS011;41530;52.382;5.270;2023-01-16T06:30:28;0.85;;;0.32;;
55655;SDS011;41530;52.382;5.270;2023-01-16T06:32:56;1.33;;;0.40;;
55655;SDS011;41530;52.382;5.270;2023-01-16T06:35:28;0.20;;;0.20;;
55655;SDS011;41530;52.382;5.270;2023-01-16T06:37:55;5.25;;;0.70;;
55655;SDS011;41530;52.382;5.270;2023-01-16T06:40:29;0.55;;;0.38;;
55655;SDS011;41530;52.382;5.270;2023-01-16T06:42:58;1.52;;;0.40;;
55655;SDS011;41530;52.382;5.270;2023-01-16T06:45:26;0.85;;;0.40;;
55655;SDS011;41530;52.382;5.270;2023-01-16T06:47:55;0.98;;;0.50;;
55655;SDS011;41530;52.382;5.270;2023-01-16T06:50:22;2.95;;;0.70;;
55655;SDS011;41530;52.382;5.270;2023-01-16T06:52:52;1.95;;;0.50;;
55655;SDS011;41530;52.382;5.270;2023-01-16T06:55:23;1.73;;;0.65;;
55655;SDS011;41530;52.382;5.270;2023-01-16T06:57:51;1.00;;;0.50;;
55655;SDS011;41530;52.382;5.270;2023-01-16T07:00:21;1.00;;;0.52;;
55655;SDS011;41530;52.382;5.270;2023-01-16T07:02:54;0.82;;;0.50;;
55655;SDS011;41530;52.382;5.270;2023-01-16T07:05:23;3.58;;;0.63;;
55655;SDS011;41530;52.382;5.270;2023-01-16T07:07:54;1.17;;;0.50;;
55655;SDS011;41530;52.382;5.270;2023-01-16T07:10:22;1.95;;;0.60;;
55655;SDS011;41530;52.382;5.270;2023-01-16T07:12:51;3.13;;;0.60;;
55655;SDS011;41530;52.382;5.270;2023-01-16T07:15:23;1.98;;;0.88;;
55655;SDS011;41530;52.382;5.270;2023-01-16T07:18:11;0.82;;;0.40;;
55655;SDS011;41530;52.382;5.270;2023-01-16T07:20:58;0.75;;;0.50;;
55655;SDS011;41530;52.382;5.270;2023-01-16T07:23:47;0.75;;;0.50;;
55655;SDS011;41530;52.382;5.270;2023-01-16T07:26:15;1.27;;;0.40;;
55655;SDS011;41530;52.382;5.270;2023-01-16T07:29:08;0.95;;;0.63;;
55655;SDS011;41530;52.382;5.270;2023-01-16T07:31:38;1.50;;;0.55;;
55655;SDS011;41530;52.382;5.270;2023-01-16T07:34:09;1.63;;;0.50;;
55655;SDS011;41530;52.382;5.270;2023-01-16T07:36:35;1.40;;;0.60;;
55655;SDS011;41530;52.382;5.270;2023-01-16T07:39:04;3.22;;;0.60;;
55655;SDS011;41530;52.382;5.270;2023-01-16T07:41:31;1.60;;;0.50;;
55655;SDS011;41530;52.382;5.270;2023-01-16T07:43:58;0.90;;;0.40;;
55655;SDS011;41530;52.382;5.270;2023-01-16T07:46:25;1.20;;;0.60;;
55655;SDS011;41530;52.382;5.270;2023-01-16T07:48:56;1.63;;;0.60;;
55655;SDS011;41530;52.382;5.270;2023-01-16T07:51:27;1.65;;;0.50;;
55655;SDS011;41530;52.382;5.270;2023-01-16T07:53:54;3.85;;;0.60;;
55655;SDS011;41530;52.382;5.270;2023-01-16T07:59:04;0.60;;;0.40;;
55655;SDS011;41530;52.382;5.270;2023-01-16T08:01:31;1.52;;;0.50;;
55655;SDS011;41530;52.382;5.270;2023-01-16T08:04:00;1.13;;;0.47;;
55655;SDS011;41530;52.382;5.270;2023-01-16T08:06:30;0.95;;;0.50;;
55655;SDS011;41530;52.382;5.270;2023-01-16T08:09:01;0.60;;;0.47;;
55655;SDS011;41530;52.382;5.270;2023-01-16T08:11:27;2.53;;;0.35;;
55655;SDS011;41530;52.382;5.270;2023-01-16T08:14:07;1.02;;;0.40;;
55655;SDS011;41530;52.382;5.270;2023-01-16T08:16:37;1.08;;;0.57;;
55655;SDS011;41530;52.382;5.270;2023-01-16T08:19:04;1.80;;;0.60;;
55655;SDS011;41530;52.382;5.270;2023-01-16T08:21:31;0.63;;;0.40;;
55655;SDS011;41530;52.382;5.270;2023-01-16T08:23:59;1.42;;;0.40;;
55655;SDS011;41530;52.382;5.270;2023-01-16T08:26:31;4.90;;;0.47;;
55655;SDS011;41530;52.382;5.270;2023-01-16T08:29:00;1.27;;;0.40;;
55655;SDS011;41530;52.382;5.270;2023-01-16T08:31:28;0.75;;;0.30;;
55655;SDS011;41530;52.382;5.270;2023-01-16T08:33:58;3.90;;;0.50;;
55655;SDS011;41530;52.382;5.270;2023-01-16T08:36:28;1.10;;;0.43;;
55655;SDS011;41530;52.382;5.270;2023-01-16T08:38:57;1.45;;;0.40;;
55655;SDS011;41530;52.382;5.270;2023-01-16T08:41:24;0.75;;;0.40;;
55655;SDS011;41530;52.382;5.270;2023-01-16T08:44:09;1.35;;;0.50;;
55655;SDS011;41530;52.382;5.270;2023-01-16T08:47:02;1.42;;;0.60;;
55655;SDS011;41530;52.382;5.270;2023-01-16T08:49:48;0.55;;;0.32;;
55655;SDS011;41530;52.382;5.270;2023-01-16T08:52:33;0.63;;;0.30;;
55655;SDS011;41530;52.382;5.270;2023-01-16T08:55:03;0.57;;;0.30;;
55655;SDS011;41530;52.382;5.270;2023-01-16T08:57:33;1.05;;;0.50;;
55655;SDS011;41530;52.382;5.270;2023-01-16T09:00:01;0.28;;;0.28;;
55655;SDS011;41530;52.382;5.270;2023-01-16T09:02:29;0.77;;;0.40;;
55655;SDS011;41530;52.382;5.270;2023-01-16T09:05:00;1.15;;;0.55;;
55655;SDS011;41530;52.382;5.270;2023-01-16T09:07:34;1.55;;;0.47;;
55655;SDS011;41530;52.382;5.270;2023-01-16T09:10:03;0.70;;;0.40;;
55655;SDS011;41530;52.382;5.270;2023-01-16T09:12:31;1.00;;;0.32;;
55655;SDS011;41530;52.382;5.270;2023-01-16T09:15:19;0.88;;;0.30;;
55655;SDS011;41530;52.382;5.270;2023-01-16T09:17:47;0.85;;;0.40;;
55655;SDS011;41530;52.382;5.270;2023-01-16T09:20:20;1.45;;;0.50;;
55655;SDS011;41530;52.382;5.270;2023-01-16T09:22:47;2.05;;;0.30;;
55655;SDS011;41530;52.382;5.270;2023-01-16T09:25:21;0.73;;;0.40;;
55655;SDS011;41530;52.382;5.270;2023-01-16T09:27:52;0.95;;;0.30;;
55655;SDS011;41530;52.382;5.270;2023-01-16T09:30:25;1.55;;;0.50;;
55655;SDS011;41530;52.382;5.270;2023-01-16T09:32:53;2.47;;;0.20;;
55655;SDS011;41530;52.382;5.270;2023-01-16T09:35:23;1.10;;;0.32;;
55655;SDS011;41530;52.382;5.270;2023-01-16T09:37:50;1.50;;;0.40;;
55655;SDS011;41530;52.382;5.270;2023-01-16T09:40:18;1.05;;;0.45;;
55655;SDS011;41530;52.382;5.270;2023-01-16T09:43:10;0.68;;;0.30;;
55655;SDS011;41530;52.382;5.270;2023-01-16T09:46:13;1.20;;;0.50;;
55655;SDS011;41530;52.382;5.270;2023-01-16T09:51:14;0.80;;;0.32;;
55655;SDS011;41530;52.382;5.270;2023-01-16T09:56:39;0.93;;;0.40;;
55655;SDS011;41530;52.382;5.270;2023-01-16T09:59:33;0.30;;;0.30;;
55655;SDS011;41530;52.382;5.270;2023-01-16T10:04:39;0.60;;;0.50;;
55655;SDS011;41530;52.382;5.270;2023-01-16T10:07:29;0.60;;;0.40;;
55655;SDS011;41530;52.382;5.270;2023-01-16T10:12:51;1.23;;;0.80;;
55655;SDS011;41530;52.382;5.270;2023-01-16T10:15:32;0.70;;;0.30;;
55655;SDS011;41530;52.382;5.270;2023-01-16T10:18:17;0.77;;;0.40;;
55655;SDS011;41530;52.382;5.270;2023-01-16T10:20:54;0.52;;;0.38;;
55655;SDS011;41530;52.382;5.270;2023-01-16T10:26:08;0.90;;;0.50;;
55655;SDS011;41530;52.382;5.270;2023-01-16T10:31:18;0.68;;;0.38;;
55655;SDS011;41530;52.382;5.270;2023-01-16T10:34:01;0.65;;;0.30;;
55655;SDS011;41530;52.382;5.270;2023-01-16T10:36:35;0.20;;;0.20;;
55655;SDS011;41530;52.382;5.270;2023-01-16T10:39:03;0.75;;;0.30;;
55655;SDS011;41530;52.382;5.270;2023-01-16T10:41:30;1.20;;;0.30;;
55655;SDS011;41530;52.382;5.270;2023-01-16T10:44:36;0.30;;;0.28;;
55655;SDS011;41530;52.382;5.270;2023-01-16T10:47:22;0.80;;;0.30;;
55655;SDS011;41530;52.382;5.270;2023-01-16T10:50:08;0.38;;;0.30;;
55655;SDS011;41530;52.382;5.270;2023-01-16T10:52:40;1.27;;;0.50;;
55655;SDS011;41530;52.382;5.270;2023-01-16T10:55:10;0.55;;;0.30;;
55655;SDS011;41530;52.382;5.270;2023-01-16T10:57:39;0.38;;;0.20;;
55655;SDS011;41530;52.382;5.270;2023-01-16T11:00:16;0.60;;;0.30;;
55655;SDS011;41530;52.382;5.270;2023-01-16T11:02:47;1.00;;;0.43;;
55655;SDS011;41530;52.382;5.270;2023-01-16T11:10:32;0.77;;;0.40;;
55655;SDS011;41530;52.382;5.270;2023-01-16T11:13:00;1.48;;;0.40;;
55655;SDS011;41530;52.382;5.270;2023-01-16T11:16:04;0.40;;;0.40;;
55655;SDS011;41530;52.382;5.270;2023-01-16T11:18:50;0.60;;;0.40;;
55655;SDS011;41530;52.382;5.270;2023-01-16T11:23:48;0.30;;;0.22;;
55655;SDS011;41530;52.382;5.270;2023-01-16T11:26:23;0.40;;;0.30;;
55655;SDS011;41530;52.382;5.270;2023-01-16T11:28:52;1.35;;;0.40;;
55655;SDS011;41530;52.382;5.270;2023-01-16T11:31:26;2.47;;;0.50;;
55655;SDS011;41530;52.382;5.270;2023-01-16T11:34:02;0.70;;;0.30;;
55655;SDS011;41530;52.382;5.270;2023-01-16T11:36:32;0.55;;;0.20;;
55655;SDS011;41530;52.382;5.270;2023-01-16T11:39:02;0.70;;;0.40;;
55655;SDS011;41530;52.382;5.270;2023-01-16T11:41:36;0.90;;;0.40;;
55655;SDS011;41530;52.382;5.270;2023-01-16T11:47:06;0.75;;;0.20;;
55655;SDS011;41530;52.382;5.270;2023-01-16T11:49:41;0.40;;;0.22;;
55655;SDS011;41530;52.382;5.270;2023-01-16T11:52:19;0.73;;;0.30;;
55655;SDS011;41530;52.382;5.270;2023-01-16T11:55:05;0.55;;;0.20;;
55655;SDS011;41530;52.382;5.270;2023-01-16T12:14:09;0.50;;;0.30;;
55655;SDS011;41530;52.382;5.270;2023-01-16T12:16:55;2.33;;;0.20;;
55655;SDS011;41530;52.382;5.270;2023-01-16T12:21:53;0.43;;;0.22;;
55655;SDS011;41530;52.382;5.270;2023-01-16T12:32:36;0.52;;;0.30;;
55655;SDS011;41530;52.382;5.270;2023-01-16T12:38:36;1.02;;;0.60;;
55655;SDS011;41530;52.382;5.270;2023-01-16T12:50:23;5.57;;;0.45;;
55655;SDS011;41530;52.382;5.270;2023-01-16T12:56:23;0.98;;;0.40;;
55655;SDS011;41530;52.382;5.270;2023-01-16T12:58:55;0.73;;;0.30;;
55655;SDS011;41530;52.382;5.270;2023-01-16T13:01:35;1.65;;;0.63;;
55655;SDS011;41530;52.382;5.270;2023-01-16T13:06:56;0.35;;;0.22;;
55655;SDS011;41530;52.382;5.270;2023-01-16T13:09:29;0.50;;;0.40;;
55655;SDS011;41530;52.382;5.270;2023-01-16T13:12:18;0.68;;;0.30;;
55655;SDS011;41530;52.382;5.270;2023-01-16T13:15:08;1.90;;;0.50;;
55655;SDS011;41530;52.382;5.270;2023-01-16T13:17:46;0.85;;;0.32;;
55655;SDS011;41530;52.382;5.270;2023-01-16T13:20:20;0.90;;;0.30;;
55655;SDS011;41530;52.382;5.270;2023-01-16T13:25:56;1.33;;;0.52;;
55655;SDS011;41530;52.382;5.270;2023-01-16T13:28:51;1.05;;;0.40;;
55655;SDS011;41530;52.382;5.270;2023-01-16T13:41:54;0.82;;;0.43;;
55655;SDS011;41530;52.382;5.270;2023-01-16T13:44:26;1.05;;;0.40;;
55655;SDS011;41530;52.382;5.270;2023-01-16T13:47:16;0.70;;;0.30;;
55655;SDS011;41530;52.382;5.270;2023-01-16T13:49:49;0.90;;;0.47;;
55655;SDS011;41530;52.382;5.270;2023-01-16T13:52:27;0.65;;;0.40;;
55655;SDS011;41530;52.382;5.270;2023-01-16T13:54:57;0.95;;;0.40;;
55655;SDS011;41530;52.382;5.270;2023-01-16T14:00:27;1.35;;;0.30;;
55655;SDS011;41530;52.382;5.270;2023-01-16T14:03:41;0.50;;;0.30;;
55655;SDS011;41530;52.382;5.270;2023-01-16T14:12:17;0.73;;;0.50;;
55655;SDS011;41530;52.382;5.270;2023-01-16T14:14:51;0.50;;;0.40;;
55655;SDS011;41530;52.382;5.270;2023-01-16T14:24:00;0.73;;;0.30;;
55655;SDS011;41530;52.382;5.270;2023-01-16T14:29:20;0.65;;;0.38;;
55655;SDS011;41530;52.382;5.270;2023-01-16T14:32:14;0.70;;;0.43;;
55655;SDS011;41530;52.382;5.270;2023-01-16T14:37:27;0.93;;;0.40;;
55655;SDS011;41530;52.382;5.270;2023-01-16T14:39:59;0.40;;;0.40;;
55655;SDS011;41530;52.382;5.270;2023-01-16T14:42:58;0.60;;;0.30;;
55655;SDS011;41530;52.382;5.270;2023-01-16T14:55:15;0.60;;;0.30;;
55655;SDS011;41530;52.382;5.270;2023-01-16T14:57:42;1.23;;;0.35;;
55655;SDS011;41530;52.382;5.270;2023-01-16T15:00:13;0.63;;;0.38;;
55655;SDS011;41530;52.382;5.270;2023-01-16T15:03:03;0.70;;;0.40;;
55655;SDS011;41530;52.382;5.270;2023-01-16T15:05:35;0.68;;;0.52;;
55655;SDS011;41530;52.382;5.270;2023-01-16T15:08:24;0.57;;;0.30;;
55655;SDS011;41530;52.382;5.270;2023-01-16T15:11:27;0.57;;;0.30;;
55655;SDS011;41530;52.382;5.270;2023-01-16T15:14:11;1.08;;;0.43;;
55655;SDS011;41530;52.382;5.270;2023-01-16T15:22:50;0.57;;;0.30;;
55655;SDS011;41530;52.382;5.270;2023-01-16T15:31:05;0.70;;;0.30;;
55655;SDS011;41530;52.382;5.270;2023-01-16T15:33:33;0.30;;;0.20;;
55655;SDS011;41530;52.382;5.270;2023-01-16T15:36:46;0.40;;;0.40;;
55655;SDS011;41530;52.382;5.270;2023-01-16T15:39:44;0.85;;;0.30;;
55655;SDS011;41530;52.382;5.270;2023-01-16T15:51:19;0.63;;;0.40;;
55655;SDS011;41530;52.382;5.270;2023-01-16T15:53:54;0.47;;;0.38;;
55655;SDS011;41530;52.382;5.270;2023-01-16T16:02:08;0.52;;;0.40;;
55655;SDS011;41530;52.382;5.270;2023-01-16T16:04:44;0.60;;;0.40;;
55655;SDS011;41530;52.382;5.270;2023-01-16T16:07:37;0.93;;;0.63;;
55655;SDS011;41530;52.382;5.270;2023-01-16T16:10:25;1.30;;;0.30;;
55655;SDS011;41530;52.382;5.270;2023-01-16T16:13:12;1.48;;;0.40;;
55655;SDS011;41530;52.382;5.270;2023-01-16T16:18:53;0.75;;;0.30;;
55655;SDS011;41530;52.382;5.270;2023-01-16T16:21:22;0.63;;;0.43;;
55655;SDS011;41530;52.382;5.270;2023-01-16T16:24:03;0.30;;;0.30;;
55655;SDS011;41530;52.382;5.270;2023-01-16T16:26:36;0.63;;;0.43;;
55655;SDS011;41530;52.382;5.270;2023-01-16T16:29:14;0.55;;;0.30;;
55655;SDS011;41530;52.382;5.270;2023-01-16T16:31:46;0.30;;;0.30;;
55655;SDS011;41530;52.382;5.270;2023-01-16T16:34:30;0.93;;;0.38;;
55655;SDS011;41530;52.382;5.270;2023-01-16T16:37:32;0.80;;;0.40;;
55655;SDS011;41530;52.382;5.270;2023-01-16T16:43:14;0.63;;;0.30;;
55655;SDS011;41530;52.382;5.270;2023-01-16T16:46:13;0.88;;;0.47;;
55655;SDS011;41530;52.382;5.270;2023-01-16T16:51:45;0.22;;;0.22;;
55655;SDS011;41530;52.382;5.270;2023-01-16T16:54:20;3.60;;;0.40;;
55655;SDS011;41530;52.382;5.270;2023-01-16T17:00:13;0.30;;;0.30;;
55655;SDS011;41530;52.382;5.270;2023-01-16T17:05:12;0.20;;;0.20;;
55655;SDS011;41530;52.382;5.270;2023-01-16T17:07:48;1.02;;;0.60;;
55655;SDS011;41530;52.382;5.270;2023-01-16T17:10:26;0.85;;;0.38;;
55655;SDS011;41530;52.382;5.270;2023-01-16T17:13:04;0.55;;;0.40;;
55655;SDS011;41530;52.382;5.270;2023-01-16T17:15:44;0.50;;;0.40;;
55655;SDS011;41530;52.382;5.270;2023-01-16T17:18:35;1.08;;;0.60;;
55655;SDS011;41530;52.382;5.270;2023-01-16T17:21:19;0.68;;;0.50;;
55655;SDS011;41530;52.382;5.270;2023-01-16T17:24:00;1.88;;;0.45;;
55655;SDS011;41530;52.382;5.270;2023-01-16T17:26:34;0.85;;;0.50;;
55655;SDS011;41530;52.382;5.270;2023-01-16T17:29:07;1.02;;;0.60;;
55655;SDS011;41530;52.382;5.270;2023-01-16T17:31:57;0.95;;;0.60;;
55655;SDS011;41530;52.382;5.270;2023-01-16T17:34:44;0.98;;;0.50;;
55655;SDS011;41530;52.382;5.270;2023-01-16T17:37:15;0.40;;;0.40;;
55655;SDS011;41530;52.382;5.270;2023-01-16T17:40:04;0.60;;;0.40;;
55655;SDS011;41530;52.382;5.270;2023-01-16T17:42:41;0.85;;;0.50;;
55655;SDS011;41530;52.382;5.270;2023-01-16T17:45:35;0.80;;;0.60;;
55655;SDS011;41530;52.382;5.270;2023-01-16T17:48:25;0.68;;;0.50;;
55655;SDS011;41530;52.382;5.270;2023-01-16T17:50:58;0.75;;;0.52;;
55655;SDS011;41530;52.382;5.270;2023-01-16T17:56:40;0.65;;;0.50;;
55655;SDS011;41530;52.382;5.270;2023-01-16T17:59:22;2.38;;;0.60;;
55655;SDS011;41530;52.382;5.270;2023-01-16T18:09:30;0.60;;;0.60;;
55655;SDS011;41530;52.382;5.270;2023-01-16T18:12:04;0.50;;;0.50;;
55655;SDS011;41530;52.382;5.270;2023-01-16T18:15:03;1.00;;;0.77;;
55655;SDS011;41530;52.382;5.270;2023-01-16T18:17:51;0.65;;;0.40;;
55655;SDS011;41530;52.382;5.270;2023-01-16T18:20:21;0.45;;;0.40;;
55655;SDS011;41530;52.382;5.270;2023-01-16T18:22:48;1.33;;;0.52;;
55655;SDS011;41530;52.382;5.270;2023-01-16T18:25:15;0.80;;;0.70;;
55655;SDS011;41530;52.382;5.270;2023-01-16T18:27:43;0.50;;;0.50;;
55655;SDS011;41530;52.382;5.270;2023-01-16T18:30:10;0.60;;;0.60;;
55655;SDS011;41530;52.382;5.270;2023-01-16T18:32:37;0.40;;;0.40;;
55655;SDS011;41530;52.382;5.270;2023-01-16T18:35:05;1.27;;;0.70;;
55655;SDS011;41530;52.382;5.270;2023-01-16T18:37:39;0.93;;;0.70;;
55655;SDS011;41530;52.382;5.270;2023-01-16T18:40:12;0.40;;;0.40;;
55655;SDS011;41530;52.382;5.270;2023-01-16T18:42:58;0.55;;;0.50;;
55655;SDS011;41530;52.382;5.270;2023-01-16T18:45:57;1.30;;;0.50;;
55655;SDS011;41530;52.382;5.270;2023-01-16T18:48:42;0.68;;;0.50;;
55655;SDS011;41530;52.382;5.270;2023-01-16T18:51:27;1.20;;;0.50;;
55655;SDS011;41530;52.382;5.270;2023-01-16T18:54:13;1.45;;;0.57;;
55655;SDS011;41530;52.382;5.270;2023-01-16T18:56:59;0.60;;;0.50;;
55655;SDS011;41530;52.382;5.270;2023-01-16T18:59:44;1.02;;;0.40;;
55655;SDS011;41530;52.382;5.270;2023-01-16T19:02:39;1.30;;;0.57;;
55655;SDS011;41530;52.382;5.270;2023-01-16T19:05:06;0.45;;;0.30;;
55655;SDS011;41530;52.382;5.270;2023-01-16T19:07:33;0.40;;;0.40;;
55655;SDS011;41530;52.382;5.270;2023-01-16T19:10:02;0.82;;;0.50;;